Time;durP1;ratioP1;P1;durP2;ratioP2;P2;SDS_P1;SDS_P2;PMS_P1;PMS_P2;Temp;Humidity;BMP_temperature;BMP_pressure;BME280_temperature;BME280_humidity;BME280_pressure;Samples;Min_cycle;Max_cycle;Signal;HPM_P1;HPM_P2
2022/10/23 00:01:25;;;;;;;31.38;18.58;;;;;;;;;;5032336;28;20045;-74
2022/10/23 00:03:54;;;;;;;35.67;18.17;;;;;;;;;;5032696;28;20032;-75
2022/10/23 00:06:23;;;;;;;39.08;19.73;;;;;;;;;;5032517;28;20119;-74
2022/10/23 00:08:49;;;;;;;36.42;19.13;;;;;;;;;;5033655;28;20123;-74
2022/10/23 00:11:17;;;;;;;44.63;22.15;;;;;;;;;;5033115;28;20033;-74
2022/10/23 00:13:42;;;;;;;47.45;24.00;;;;;;;;;;5032493;28;20174;-75
2022/10/23 00:16:08;;;;;;;51.17;25.98;;;;;;;;;;5038751;28;20090;-74
2022/10/23 00:18:33;;;;;;;54.35;26.17;;;;;;;;;;5041297;28;20068;-72
2022/10/23 00:21:02;;;;;;;46.72;24.58;;;;;;;;;;5034573;28;20111;-74
2022/10/23 00:23:28;;;;;;;50.85;24.40;;;;;;;;;;5030639;28;20683;-74
2022/10/23 00:25:53;;;;;;;46.13;23.38;;;;;;;;;;5028825;28;20029;-74
2022/10/23 00:28:18;;;;;;;48.80;23.40;;;;;;;;;;5029272;28;20081;-74
2022/10/23 00:30:44;;;;;;;43.25;21.15;;;;;;;;;;5030289;28;20024;-74
2022/10/23 00:33:09;;;;;;;45.58;22.60;;;;;;;;;;5026065;28;20036;-71
2022/10/23 00:35:39;;;;;;;49.30;23.13;;;;;;;;;;5025999;28;20025;-73
2022/10/23 00:38:04;;;;;;;41.97;21.77;;;;;;;;;;5029525;28;20039;-74
2022/10/23 00:40:30;;;;;;;41.22;20.92;;;;;;;;;;5033489;28;20040;-74
2022/10/23 00:42:55;;;;;;;39.33;19.73;;;;;;;;;;5033946;28;20173;-74
2022/10/23 00:45:24;;;;;;;36.63;18.48;;;;;;;;;;5039274;28;20082;-74
2022/10/23 00:47:49;;;;;;;33.67;17.88;;;;;;;;;;5041477;28;20143;-74
2022/10/23 00:50:15;;;;;;;37.05;18.13;;;;;;;;;;5034514;28;20046;-74
2022/10/23 00:52:45;;;;;;;34.22;17.10;;;;;;;;;;5030331;28;20135;-73
2022/10/23 00:55:13;;;;;;;29.90;16.33;;;;;;;;;;5039147;28;20106;-74
2022/10/23 00:57:42;;;;;;;31.75;16.35;;;;;;;;;;5030884;28;20147;-74
2022/10/23 01:00:11;;;;;;;32.03;16.08;;;;;;;;;;5033008;28;20049;-74
2022/10/23 01:02:37;;;;;;;33.47;15.80;;;;;;;;;;5030034;28;22237;-74
2022/10/23 01:05:02;;;;;;;28.40;15.55;;;;;;;;;;5031355;28;20032;-74
2022/10/23 01:07:31;;;;;;;27.50;16.65;;;;;;;;;;5033010;28;20041;-73
2022/10/23 01:09:57;;;;;;;32.88;16.63;;;;;;;;;;5033024;28;20133;-74
2022/10/23 01:12:24;;;;;;;38.97;18.90;;;;;;;;;;5033038;28;20043;-73
2022/10/23 01:14:49;;;;;;;30.73;18.30;;;;;;;;;;5033721;28;20076;-74
2022/10/23 01:17:17;;;;;;;33.85;17.40;;;;;;;;;;5033582;28;20119;-73
2022/10/23 01:19:42;;;;;;;31.40;17.02;;;;;;;;;;5029653;28;20044;-73
2022/10/23 01:22:20;;;;;;;36.55;17.30;;;;;;;;;;5031687;28;20041;-74
2022/10/23 01:24:55;;;;;;;28.13;16.17;;;;;;;;;;5027465;28;20033;-73
2022/10/23 01:27:25;;;;;;;29.67;16.42;;;;;;;;;;5029235;28;20058;-74
2022/10/23 01:30:06;;;;;;;32.13;15.90;;;;;;;;;;5030158;28;20033;-73
2022/10/23 01:32:42;;;;;;;33.60;15.30;;;;;;;;;;5029525;28;20032;-74
2022/10/23 01:35:12;;;;;;;29.75;15.70;;;;;;;;;;5030680;28;20033;-73
2022/10/23 01:37:51;;;;;;;31.25;15.68;;;;;;;;;;5029380;28;20132;-73
2022/10/23 01:40:23;;;;;;;28.10;15.98;;;;;;;;;;5029253;28;20369;-73
2022/10/23 01:42:54;;;;;;;31.42;15.93;;;;;;;;;;5026962;28;20880;-73
2022/10/23 01:45:27;;;;;;;33.13;16.47;;;;;;;;;;5026882;28;20062;-74
2022/10/23 01:47:55;;;;;;;27.90;15.73;;;;;;;;;;5027336;28;22627;-73
2022/10/23 01:50:23;;;;;;;34.60;16.63;;;;;;;;;;5027300;28;20118;-73
2022/10/23 01:52:49;;;;;;;34.47;17.48;;;;;;;;;;5023819;28;20042;-73
2022/10/23 01:55:15;;;;;;;29.63;16.80;;;;;;;;;;5008996;28;20041;-74
2022/10/23 01:57:42;;;;;;;27.55;15.77;;;;;;;;;;5028413;28;20102;-74
2022/10/23 02:00:11;;;;;;;33.90;16.35;;;;;;;;;;5033996;28;20035;-74
2022/10/23 02:02:38;;;;;;;31.85;16.50;;;;;;;;;;5013883;28;20036;-73
2022/10/23 02:05:07;;;;;;;35.03;17.75;;;;;;;;;;5030299;28;20056;-74
2022/10/23 02:07:32;;;;;;;29.00;16.05;;;;;;;;;;5028700;28;20056;-74
2022/10/23 02:09:58;;;;;;;33.35;16.67;;;;;;;;;;5029390;28;20120;-74
2022/10/23 02:12:28;;;;;;;35.10;18.17;;;;;;;;;;5030186;28;20560;-73
2022/10/23 02:15:05;;;;;;;29.45;16.63;;;;;;;;;;5030830;28;20040;-74
2022/10/23 02:17:46;;;;;;;34.05;19.88;;;;;;;;;;5033457;28;20040;-74
2022/10/23 02:20:14;;;;;;;32.28;18.05;;;;;;;;;;5020918;28;20862;-68
2022/10/23 02:22:41;;;;;;;33.60;16.77;;;;;;;;;;5018489;28;20395;-68
2022/10/23 02:25:12;;;;;;;30.88;18.05;;;;;;;;;;5018916;28;20099;-68
2022/10/23 02:27:39;;;;;;;34.53;16.90;;;;;;;;;;5016686;28;20041;-68
2022/10/23 02:30:09;;;;;;;30.20;14.88;;;;;;;;;;5017314;28;20037;-68
2022/10/23 02:32:35;;;;;;;34.17;15.20;;;;;;;;;;5018979;28;20033;-68
2022/10/23 02:35:01;;;;;;;35.95;17.85;;;;;;;;;;5017198;28;20465;-68
2022/10/23 02:37:26;;;;;;;30.25;15.60;;;;;;;;;;5017552;28;20991;-68
2022/10/23 02:39:52;;;;;;;27.90;15.05;;;;;;;;;;5015178;28;20037;-68
2022/10/23 02:42:38;;;;;;;23.40;14.55;;;;;;;;;;5016726;28;20041;-68
2022/10/23 02:45:19;;;;;;;26.55;14.93;;;;;;;;;;5016552;28;20626;-67
2022/10/23 02:48:03;;;;;;;25.20;14.68;;;;;;;;;;5018654;28;20053;-68
2022/10/23 02:50:31;;;;;;;26.33;14.63;;;;;;;;;;5016430;28;20042;-68
2022/10/23 02:53:12;;;;;;;24.27;13.60;;;;;;;;;;5017663;28;20715;-68
2022/10/23 02:56:03;;;;;;;25.70;14.27;;;;;;;;;;5015924;28;20930;-68
2022/10/23 02:58:40;;;;;;;25.45;13.82;;;;;;;;;;4995868;28;20041;-68
2022/10/23 03:01:12;;;;;;;26.25;12.65;;;;;;;;;;4996572;28;20037;-68
2022/10/23 03:03:40;;;;;;;28.70;14.15;;;;;;;;;;4995311;28;20043;-68
2022/10/23 03:06:06;;;;;;;32.13;15.10;;;;;;;;;;4997913;28;20544;-68
2022/10/23 03:08:39;;;;;;;32.03;13.45;;;;;;;;;;4998940;28;20037;-68
2022/10/23 03:11:05;;;;;;;25.27;14.43;;;;;;;;;;5012308;28;20193;-68
2022/10/23 03:13:30;;;;;;;23.98;12.73;;;;;;;;;;5017767;28;20587;-68
2022/10/23 03:15:56;;;;;;;25.10;12.60;;;;;;;;;;5017572;28;20053;-68
2022/10/23 03:18:21;;;;;;;24.35;12.25;;;;;;;;;;5016879;28;20037;-68
2022/10/23 03:20:46;;;;;;;29.50;12.52;;;;;;;;;;5016835;28;22270;-68
2022/10/23 03:23:12;;;;;;;27.23;13.38;;;;;;;;;;5021907;28;20075;-68
2022/10/23 03:25:38;;;;;;;25.00;13.48;;;;;;;;;;5017307;28;20043;-68
2022/10/23 03:28:03;;;;;;;23.92;12.60;;;;;;;;;;5025283;28;20029;-68
2022/10/23 03:30:31;;;;;;;21.45;12.02;;;;;;;;;;5019714;28;20106;-68
2022/10/23 03:32:56;;;;;;;27.33;12.93;;;;;;;;;;5023160;28;22138;-68
2022/10/23 03:35:21;;;;;;;24.33;12.40;;;;;;;;;;5020673;28;20059;-68
2022/10/23 03:37:47;;;;;;;25.98;12.68;;;;;;;;;;5019473;28;20565;-68
2022/10/23 03:40:17;;;;;;;27.08;13.02;;;;;;;;;;5023221;28;20029;-68
2022/10/23 03:42:45;;;;;;;25.95;13.13;;;;;;;;;;5022356;28;20122;-68
2022/10/23 03:45:13;;;;;;;22.15;12.35;;;;;;;;;;5020224;28;20120;-68
2022/10/23 03:47:40;;;;;;;26.83;13.20;;;;;;;;;;5017921;28;20041;-69
2022/10/23 03:50:08;;;;;;;25.58;13.43;;;;;;;;;;5018399;28;20056;-68
2022/10/23 03:52:34;;;;;;;25.83;13.55;;;;;;;;;;5017069;28;20045;-69
2022/10/23 03:54:59;;;;;;;19.83;13.30;;;;;;;;;;5017989;28;20079;-68
2022/10/23 03:57:25;;;;;;;25.45;13.48;;;;;;;;;;5019486;28;20293;-68
2022/10/23 03:59:51;;;;;;;27.13;14.27;;;;;;;;;;5019085;28;20159;-68
2022/10/23 04:02:16;;;;;;;27.92;14.65;;;;;;;;;;5015543;28;20032;-68
2022/10/23 04:04:42;;;;;;;26.52;14.48;;;;;;;;;;5023615;28;20037;-68
2022/10/23 04:07:07;;;;;;;26.88;15.10;;;;;;;;;;5017711;28;20687;-68
2022/10/23 04:09:32;;;;;;;26.63;14.05;;;;;;;;;;5017773;28;20098;-68
2022/10/23 04:11:57;;;;;;;24.58;13.00;;;;;;;;;;5017842;28;20115;-68
2022/10/23 04:14:23;;;;;;;19.77;13.07;;;;;;;;;;5017155;28;20142;-68
2022/10/23 04:16:48;;;;;;;23.23;13.25;;;;;;;;;;5018344;28;20607;-68
2022/10/23 04:19:16;;;;;;;27.48;13.40;;;;;;;;;;5020836;28;20707;-68
2022/10/23 04:21:41;;;;;;;27.23;13.93;;;;;;;;;;5018327;28;20029;-68
2022/10/23 04:24:06;;;;;;;25.83;13.90;;;;;;;;;;5019654;28;20238;-69
2022/10/23 04:26:32;;;;;;;24.65;14.30;;;;;;;;;;5017823;28;20111;-68
2022/10/23 04:29:00;;;;;;;26.13;13.45;;;;;;;;;;5020186;28;20033;-68
2022/10/23 04:31:28;;;;;;;22.80;13.15;;;;;;;;;;5021399;28;20049;-68
2022/10/23 04:33:55;;;;;;;24.10;14.25;;;;;;;;;;5018451;28;20060;-68
2022/10/23 04:36:23;;;;;;;26.33;14.00;;;;;;;;;;5017656;28;20032;-70
2022/10/23 04:38:49;;;;;;;24.77;14.02;;;;;;;;;;5019309;28;20144;-70
2022/10/23 04:41:14;;;;;;;30.38;14.15;;;;;;;;;;5019988;28;20040;-69
2022/10/23 04:43:40;;;;;;;27.95;14.18;;;;;;;;;;5018379;28;20041;-68
2022/10/23 04:46:05;;;;;;;23.27;14.75;;;;;;;;;;5020925;28;20079;-68
2022/10/23 04:48:33;;;;;;;25.17;13.90;;;;;;;;;;5019792;28;20036;-68
2022/10/23 04:51:00;;;;;;;24.30;14.63;;;;;;;;;;5020509;28;20030;-67
2022/10/23 04:53:25;;;;;;;29.02;14.90;;;;;;;;;;5021140;28;20139;-68
2022/10/23 04:55:52;;;;;;;23.42;14.98;;;;;;;;;;5020238;28;20029;-68
2022/10/23 04:58:18;;;;;;;31.27;15.15;;;;;;;;;;5024294;28;20262;-68
2022/10/23 05:00:44;;;;;;;24.50;14.93;;;;;;;;;;5020349;28;20040;-69
2022/10/23 05:03:11;;;;;;;23.83;14.35;;;;;;;;;;5020904;28;20025;-68
2022/10/23 05:05:36;;;;;;;22.33;14.05;;;;;;;;;;5021377;28;22351;-68
2022/10/23 05:08:02;;;;;;;27.80;15.63;;;;;;;;;;5020556;28;20838;-68
2022/10/23 05:10:28;;;;;;;24.85;15.15;;;;;;;;;;5020608;28;20037;-68
2022/10/23 05:12:53;;;;;;;27.42;15.57;;;;;;;;;;5019937;28;20041;-68
2022/10/23 05:15:19;;;;;;;26.92;14.52;;;;;;;;;;5020613;28;20048;-68
2022/10/23 05:17:45;;;;;;;25.88;14.73;;;;;;;;;;5019243;28;20032;-68
2022/10/23 05:20:14;;;;;;;30.42;14.70;;;;;;;;;;5017934;28;20130;-68
2022/10/23 05:22:41;;;;;;;23.60;14.32;;;;;;;;;;5020157;28;20806;-68
2022/10/23 05:25:08;;;;;;;28.05;14.50;;;;;;;;;;5019842;28;20083;-69
2022/10/23 05:27:33;;;;;;;27.42;15.30;;;;;;;;;;5018097;28;20608;-67
2022/10/23 05:29:59;;;;;;;29.70;15.30;;;;;;;;;;5019318;28;20034;-68
2022/10/23 05:32:26;;;;;;;27.13;14.85;;;;;;;;;;5021325;28;20045;-70
2022/10/23 05:34:54;;;;;;;25.13;14.80;;;;;;;;;;5017449;28;20091;-69
2022/10/23 05:37:19;;;;;;;26.77;14.23;;;;;;;;;;5021875;28;20029;-70
2022/10/23 05:39:45;;;;;;;26.50;14.70;;;;;;;;;;5021247;28;20029;-70
2022/10/23 05:42:10;;;;;;;22.98;14.88;;;;;;;;;;5019355;28;20060;-70
2022/10/23 05:44:35;;;;;;;25.67;15.15;;;;;;;;;;5018301;28;20726;-70
2022/10/23 05:47:01;;;;;;;21.63;14.55;;;;;;;;;;5013600;28;20125;-70
2022/10/23 05:49:26;;;;;;;27.48;15.27;;;;;;;;;;5018436;28;20147;-68
2022/10/23 05:51:51;;;;;;;24.60;16.70;;;;;;;;;;5018099;28;20043;-69
2022/10/23 05:54:17;;;;;;;28.60;18.95;;;;;;;;;;5017885;28;20047;-70
2022/10/23 05:56:43;;;;;;;24.83;18.25;;;;;;;;;;5017158;28;20888;-70
2022/10/23 05:59:09;;;;;;;31.50;18.63;;;;;;;;;;5022492;28;20036;-68
2022/10/23 06:01:34;;;;;;;32.13;17.85;;;;;;;;;;5013626;28;20029;-67
2022/10/23 06:04:00;;;;;;;26.63;15.80;;;;;;;;;;5017130;28;20117;-69
2022/10/23 06:06:25;;;;;;;26.45;14.85;;;;;;;;;;5020213;28;20045;-70
2022/10/23 06:08:51;;;;;;;24.63;15.18;;;;;;;;;;5016953;28;20041;-70
2022/10/23 06:11:16;;;;;;;25.00;14.68;;;;;;;;;;5017982;28;20741;-70
2022/10/23 06:13:43;;;;;;;24.27;14.30;;;;;;;;;;5021407;28;20127;-70
2022/10/23 06:16:13;;;;;;;26.92;13.60;;;;;;;;;;5015674;28;20216;-70
2022/10/23 06:18:40;;;;;;;;;;;;;;;;;;5017850;28;20097;-70
2022/10/23 06:21:05;;;;;;;23.55;11.07;;;;;;;;;;5014211;28;20021;-70
2022/10/23 06:23:31;;;;;;;20.17;11.23;;;;;;;;;;5016900;28;20033;-70
2022/10/23 06:25:57;;;;;;;26.55;13.65;;;;;;;;;;5015093;28;20732;-70
2022/10/23 06:28:22;;;;;;;23.27;11.45;;;;;;;;;;5017284;28;20056;-70
2022/10/23 06:30:50;;;;;;;18.88;10.18;;;;;;;;;;5012362;28;20039;-70
2022/10/23 06:33:15;;;;;;;22.27;11.52;;;;;;;;;;5016701;28;20029;-72
2022/10/23 06:35:40;;;;;;;26.80;11.05;;;;;;;;;;5014866;28;20037;-70
2022/10/23 06:38:08;;;;;;;19.67;9.65;;;;;;;;;;5014403;28;20059;-70
2022/10/23 06:40:33;;;;;;;16.40;8.65;;;;;;;;;;5016469;28;20487;-70
2022/10/23 06:43:01;;;;;;;19.77;9.10;;;;;;;;;;5016413;28;20036;-70
2022/10/23 06:45:28;;;;;;;15.60;9.20;;;;;;;;;;5015257;28;20029;-70
2022/10/23 06:47:54;;;;;;;18.33;8.18;;;;;;;;;;5013858;28;20048;-69
2022/10/23 06:50:19;;;;;;;16.52;8.10;;;;;;;;;;5016731;28;20031;-71
2022/10/23 06:52:45;;;;;;;13.90;7.85;;;;;;;;;;5014204;28;20040;-70
2022/10/23 06:55:10;;;;;;;14.88;7.57;;;;;;;;;;5013660;28;20032;-69
2022/10/23 06:57:35;;;;;;;14.10;6.90;;;;;;;;;;5015015;28;20046;-71
2022/10/23 07:00:01;;;;;;;18.40;6.90;;;;;;;;;;5015866;28;20041;-70
2022/10/23 07:02:26;;;;;;;17.75;6.85;;;;;;;;;;4999813;28;20037;-66
2022/10/23 07:04:53;;;;;;;17.67;6.72;;;;;;;;;;5023501;28;20035;-67
2022/10/23 07:07:19;;;;;;;17.00;7.10;;;;;;;;;;5027245;28;20068;-66
2022/10/23 07:09:46;;;;;;;14.65;6.47;;;;;;;;;;5016790;28;21047;-66
2022/10/23 07:12:12;;;;;;;13.82;5.80;;;;;;;;;;5015493;28;20136;-67
2022/10/23 07:14:37;;;;;;;12.65;5.82;;;;;;;;;;5017401;28;20862;-68
2022/10/23 07:17:02;;;;;;;10.73;5.97;;;;;;;;;;5017858;28;20081;-66
2022/10/23 07:19:27;;;;;;;10.32;6.28;;;;;;;;;;5018258;28;20033;-66
2022/10/23 07:21:55;;;;;;;11.43;5.60;;;;;;;;;;5027465;28;20047;-68
2022/10/23 07:24:21;;;;;;;11.60;5.28;;;;;;;;;;5019320;28;20043;-67
2022/10/23 07:26:46;;;;;;;11.45;5.50;;;;;;;;;;5018304;28;20045;-67
2022/10/23 07:29:12;;;;;;;9.70;5.18;;;;;;;;;;5019115;28;20875;-67
2022/10/23 07:31:38;;;;;;;10.93;5.20;;;;;;;;;;5017976;28;20041;-67
2022/10/23 07:34:05;;;;;;;10.13;5.60;;;;;;;;;;5020043;28;20544;-68
2022/10/23 07:36:30;;;;;;;13.10;5.65;;;;;;;;;;5010209;28;20054;-68
2022/10/23 07:38:56;;;;;;;14.73;5.70;;;;;;;;;;5021855;28;20036;-68
2022/10/23 07:41:24;;;;;;;12.15;5.53;;;;;;;;;;5017378;28;20937;-68
2022/10/23 07:43:49;;;;;;;14.30;6.15;;;;;;;;;;5018437;28;20037;-67
2022/10/23 07:46:14;;;;;;;11.88;5.68;;;;;;;;;;5018043;28;20776;-68
2022/10/23 07:48:40;;;;;;;11.32;5.55;;;;;;;;;;5022206;28;20041;-68
2022/10/23 07:51:07;;;;;;;9.70;5.70;;;;;;;;;;5018285;28;20032;-68
2022/10/23 07:53:35;;;;;;;11.95;5.18;;;;;;;;;;5018158;28;20362;-68
2022/10/23 07:56:05;;;;;;;15.55;5.63;;;;;;;;;;5017421;28;20033;-67
2022/10/23 07:58:30;;;;;;;11.65;5.05;;;;;;;;;;5016862;28;20036;-66
2022/10/23 08:00:57;;;;;;;11.48;5.57;;;;;;;;;;5014504;28;20033;-68
2022/10/23 08:03:26;;;;;;;9.88;4.95;;;;;;;;;;5031341;28;20032;-67
2022/10/23 08:05:52;;;;;;;10.07;5.45;;;;;;;;;;5013148;28;20099;-67
2022/10/23 08:08:18;;;;;;;10.63;5.60;;;;;;;;;;5017148;28;20859;-67
2022/10/23 08:10:44;;;;;;;16.38;6.13;;;;;;;;;;5016920;28;20033;-67
2022/10/23 08:13:11;;;;;;;13.07;5.82;;;;;;;;;;5022334;28;20117;-66
2022/10/23 08:15:36;;;;;;;10.18;5.00;;;;;;;;;;5022481;28;20028;-67
2022/10/23 08:18:02;;;;;;;11.82;5.20;;;;;;;;;;5019111;28;21273;-67
2022/10/23 08:20:27;;;;;;;11.82;6.38;;;;;;;;;;5021831;28;20032;-68
2022/10/23 08:22:52;;;;;;;14.82;6.25;;;;;;;;;;5020634;28;20857;-67
2022/10/23 08:25:18;;;;;;;14.07;6.43;;;;;;;;;;5016477;28;20168;-67
2022/10/23 08:27:44;;;;;;;14.13;6.70;;;;;;;;;;5022121;28;20851;-69
2022/10/23 08:30:09;;;;;;;14.30;6.93;;;;;;;;;;5015996;28;20045;-69
2022/10/23 08:32:34;;;;;;;12.70;6.57;;;;;;;;;;5020341;28;20705;-70
2022/10/23 08:35:02;;;;;;;14.15;6.70;;;;;;;;;;5018218;28;20147;-70
2022/10/23 08:37:27;;;;;;;16.83;7.05;;;;;;;;;;5018922;28;20059;-69
2022/10/23 08:39:54;;;;;;;14.73;5.80;;;;;;;;;;5020073;28;21010;-69
2022/10/23 08:42:24;;;;;;;18.65;8.25;;;;;;;;;;5017133;28;21147;-71
2022/10/23 08:44:56;;;;;;;10.77;5.70;;;;;;;;;;5016925;28;20043;-69
2022/10/23 08:47:25;;;;;;;12.55;6.35;;;;;;;;;;5012035;28;20798;-70
2022/10/23 08:49:53;;;;;;;14.82;6.15;;;;;;;;;;5018879;28;20168;-69
2022/10/23 08:52:18;;;;;;;10.60;5.57;;;;;;;;;;5015828;28;20174;-72
2022/10/23 08:54:51;;;;;;;13.77;5.78;;;;;;;;;;5017044;28;20167;-68
2022/10/23 08:57:16;;;;;;;9.20;5.13;;;;;;;;;;5018349;28;20745;-70
2022/10/23 08:59:46;;;;;;;11.32;5.68;;;;;;;;;;5018026;28;20141;-70
2022/10/23 09:02:16;;;;;;;9.20;5.13;;;;;;;;;;5018620;28;20145;-70
2022/10/23 09:04:43;;;;;;;12.70;5.25;;;;;;;;;;5017079;28;20037;-70
2022/10/23 09:07:11;;;;;;;10.32;4.30;;;;;;;;;;5018721;28;20037;-70
2022/10/23 09:09:37;;;;;;;10.20;5.50;;;;;;;;;;5017697;28;20039;-70
2022/10/23 09:12:08;;;;;;;9.90;4.90;;;;;;;;;;5023217;28;20060;-70
2022/10/23 09:14:33;;;;;;;10.47;4.80;;;;;;;;;;5016683;28;21219;-71
2022/10/23 09:17:17;;;;;;;11.20;4.88;;;;;;;;;;5020413;28;20275;-70
2022/10/23 09:19:44;;;;;;;8.27;4.80;;;;;;;;;;5016788;28;20033;-70
2022/10/23 09:22:10;;;;;;;10.25;4.80;;;;;;;;;;5017440;28;20189;-69
2022/10/23 09:24:35;;;;;;;11.75;5.07;;;;;;;;;;5018420;28;20667;-69
2022/10/23 09:27:00;;;;;;;9.77;4.45;;;;;;;;;;5019572;28;20044;-70
2022/10/23 09:29:28;;;;;;;10.20;4.60;;;;;;;;;;5027604;28;20048;-69
2022/10/23 09:31:57;;;;;;;7.75;4.35;;;;;;;;;;5017694;28;20056;-68
2022/10/23 09:34:23;;;;;;;10.43;5.10;;;;;;;;;;5016516;28;20203;-69
2022/10/23 09:36:50;;;;;;;9.27;4.10;;;;;;;;;;5017703;28;20032;-69
2022/10/23 09:39:42;;;;;;;9.65;4.50;;;;;;;;;;5032630;28;20044;-68
2022/10/23 09:42:19;;;;;;;8.52;4.30;;;;;;;;;;5016561;28;20032;-69
2022/10/23 09:44:49;;;;;;;10.52;4.78;;;;;;;;;;5017717;28;20036;-70
2022/10/23 09:47:18;;;;;;;9.95;4.50;;;;;;;;;;5018543;28;22358;-68
2022/10/23 09:49:47;;;;;;;9.15;4.28;;;;;;;;;;5021429;28;20151;-71
2022/10/23 09:52:15;;;;;;;8.38;4.13;;;;;;;;;;5030515;28;21146;-70
2022/10/23 09:54:44;;;;;;;12.48;4.70;;;;;;;;;;5016798;28;21053;-70
2022/10/23 09:57:29;;;;;;;7.50;4.13;;;;;;;;;;5017898;28;20037;-68
2022/10/23 09:59:59;;;;;;;12.25;4.55;;;;;;;;;;5017476;28;20037;-70
2022/10/23 10:02:30;;;;;;;9.63;4.30;;;;;;;;;;5017253;28;20912;-69
2022/10/23 10:04:56;;;;;;;8.38;4.25;;;;;;;;;;5017041;28;20121;-68
2022/10/23 10:07:23;;;;;;;10.20;4.10;;;;;;;;;;5019041;28;20041;-68
2022/10/23 10:09:49;;;;;;;9.65;3.80;;;;;;;;;;5017136;28;20060;-68
2022/10/23 10:12:27;;;;;;;10.07;4.10;;;;;;;;;;5016707;28;20032;-68
2022/10/23 10:15:03;;;;;;;7.43;3.67;;;;;;;;;;5020743;28;20044;-68
2022/10/23 10:17:47;;;;;;;12.25;4.00;;;;;;;;;;5016380;28;20130;-68
2022/10/23 10:20:19;;;;;;;13.32;4.75;;;;;;;;;;5018344;28;20064;-68
2022/10/23 10:23:03;;;;;;;8.15;4.03;;;;;;;;;;5017341;28;20047;-68
2022/10/23 10:25:47;;;;;;;9.07;4.07;;;;;;;;;;5014081;28;20189;-68
2022/10/23 10:28:15;;;;;;;8.65;3.88;;;;;;;;;;5017752;28;22258;-68
2022/10/23 10:30:40;;;;;;;7.75;3.60;;;;;;;;;;5015393;28;20116;-67
2022/10/23 10:33:17;;;;;;;8.90;4.03;;;;;;;;;;5017889;28;21039;-68
2022/10/23 10:35:51;;;;;;;8.40;4.00;;;;;;;;;;5016179;28;20053;-68
2022/10/23 10:38:41;;;;;;;8.05;3.78;;;;;;;;;;5018029;28;20117;-68
2022/10/23 10:41:20;;;;;;;10.32;4.15;;;;;;;;;;5011132;28;20040;-68
2022/10/23 10:43:51;;;;;;;11.15;4.35;;;;;;;;;;4998815;28;20040;-66
2022/10/23 10:46:32;;;;;;;11.70;4.40;;;;;;;;;;5013471;27;20484;-68
2022/10/23 10:49:14;;;;;;;9.30;3.65;;;;;;;;;;5015236;28;20044;-69
2022/10/23 10:51:39;;;;;;;9.65;4.10;;;;;;;;;;5015676;28;20587;-68
2022/10/23 10:54:28;;;;;;;10.65;4.68;;;;;;;;;;5017827;28;20131;-66
2022/10/23 10:56:57;;;;;;;7.57;4.00;;;;;;;;;;5006964;28;20029;-67
2022/10/23 10:59:26;;;;;;;9.60;4.45;;;;;;;;;;5018272;28;20186;-67
2022/10/23 11:01:55;;;;;;;8.60;3.88;;;;;;;;;;5018525;28;20094;-67
2022/10/23 11:04:33;;;;;;;7.15;3.80;;;;;;;;;;5027442;28;20082;-68
2022/10/23 11:07:04;;;;;;;6.38;3.45;;;;;;;;;;5017894;28;20067;-67
2022/10/23 11:09:30;;;;;;;7.03;3.38;;;;;;;;;;5013577;28;20079;-69
2022/10/23 11:11:55;;;;;;;7.95;3.65;;;;;;;;;;5017169;28;20029;-68
2022/10/23 11:14:29;;;;;;;9.43;3.70;;;;;;;;;;5019239;28;20064;-68
2022/10/23 11:17:15;;;;;;;6.32;3.28;;;;;;;;;;5020985;28;20934;-68
2022/10/23 11:19:59;;;;;;;4.75;3.15;;;;;;;;;;5018129;28;20039;-69
2022/10/23 11:22:34;;;;;;;7.75;3.30;;;;;;;;;;5021066;28;20461;-68
2022/10/23 11:25:05;;;;;;;8.20;3.30;;;;;;;;;;5018401;28;20101;-68
2022/10/23 11:27:30;;;;;;;8.30;4.05;;;;;;;;;;5018171;28;20677;-68
2022/10/23 11:30:02;;;;;;;10.57;4.60;;;;;;;;;;5018514;28;20222;-69
2022/10/23 11:32:30;;;;;;;6.78;4.00;;;;;;;;;;5018108;28;20107;-69
2022/10/23 11:35:08;;;;;;;8.88;4.45;;;;;;;;;;5014213;28;20040;-69
2022/10/23 11:37:33;;;;;;;9.27;4.18;;;;;;;;;;5016399;28;20045;-69
2022/10/23 11:40:01;;;;;;;10.10;4.55;;;;;;;;;;5017281;28;20167;-68
2022/10/23 11:42:38;;;;;;;10.85;4.20;;;;;;;;;;5016117;28;21160;-69
2022/10/23 11:45:24;;;;;;;7.55;4.68;;;;;;;;;;5018022;28;20033;-69
2022/10/23 11:48:03;;;;;;;10.55;4.45;;;;;;;;;;5019628;28;20049;-69
2022/10/23 11:50:29;;;;;;;10.82;5.00;;;;;;;;;;5020039;28;20984;-68
2022/10/23 11:53:09;;;;;;;8.82;4.10;;;;;;;;;;5021643;28;20048;-68
2022/10/23 11:55:35;;;;;;;9.40;4.20;;;;;;;;;;5021050;28;20032;-68
2022/10/23 11:58:03;;;;;;;8.35;4.68;;;;;;;;;;5020962;28;20048;-67
2022/10/23 12:00:30;;;;;;;10.07;4.70;;;;;;;;;;5019193;28;20131;-69
2022/10/23 12:02:55;;;;;;;9.88;4.90;;;;;;;;;;5023032;28;20086;-69
2022/10/23 12:05:33;;;;;;;10.82;5.00;;;;;;;;;;5018754;28;20195;-69
2022/10/23 12:08:02;;;;;;;12.88;4.95;;;;;;;;;;5021052;28;20114;-69
2022/10/23 12:10:33;;;;;;;7.57;4.32;;;;;;;;;;5018638;28;25232;-69
2022/10/23 12:13:19;;;;;;;14.35;4.60;;;;;;;;;;5018548;28;21118;-69
2022/10/23 12:15:51;;;;;;;8.45;4.13;;;;;;;;;;5016652;28;20043;-68
2022/10/23 12:18:16;;;;;;;9.98;4.00;;;;;;;;;;5019245;28;20045;-69
2022/10/23 12:20:42;;;;;;;7.63;4.05;;;;;;;;;;5020367;28;20078;-69
2022/10/23 12:23:19;;;;;;;12.10;4.07;;;;;;;;;;5017033;28;20078;-69
2022/10/23 12:25:53;;;;;;;8.55;3.72;;;;;;;;;;5020527;28;20068;-68
2022/10/23 12:28:31;;;;;;;10.48;3.38;;;;;;;;;;5017352;28;20036;-68
2022/10/23 12:31:15;;;;;;;7.25;3.58;;;;;;;;;;5020308;28;20090;-68
2022/10/23 12:33:40;;;;;;;7.80;3.80;;;;;;;;;;5023119;28;20739;-68
2022/10/23 12:36:24;;;;;;;8.82;3.53;;;;;;;;;;5014794;28;20110;-68
2022/10/23 12:38:50;;;;;;;11.80;5.22;;;;;;;;;;5019283;28;20885;-68
2022/10/23 12:41:22;;;;;;;8.80;3.95;;;;;;;;;;5019390;28;20029;-67
2022/10/23 12:43:55;;;;;;;7.97;4.25;;;;;;;;;;5019492;28;20059;-68
2022/10/23 12:46:27;;;;;;;9.70;4.22;;;;;;;;;;5017931;28;20419;-68
2022/10/23 12:48:55;;;;;;;11.65;4.57;;;;;;;;;;5004296;28;20048;-67
2022/10/23 12:51:25;;;;;;;8.07;4.18;;;;;;;;;;5021402;28;21045;-72
2022/10/23 12:53:50;;;;;;;12.52;5.43;;;;;;;;;;5020003;28;20043;-71
2022/10/23 12:56:15;;;;;;;10.52;5.05;;;;;;;;;;5019356;28;20028;-71
2022/10/23 12:58:54;;;;;;;10.90;4.78;;;;;;;;;;5016417;28;21427;-71
2022/10/23 13:01:25;;;;;;;8.43;4.50;;;;;;;;;;5019104;28;20036;-72
2022/10/23 13:03:51;;;;;;;12.23;5.03;;;;;;;;;;5019622;28;20136;-72
2022/10/23 13:06:20;;;;;;;11.75;4.75;;;;;;;;;;5020059;28;21221;-71
2022/10/23 13:08:46;;;;;;;12.43;5.45;;;;;;;;;;5020664;28;20124;-71
2022/10/23 13:11:16;;;;;;;13.82;6.28;;;;;;;;;;5015257;28;20029;-71
2022/10/23 13:13:48;;;;;;;11.25;6.15;;;;;;;;;;5016094;28;20145;-70
2022/10/23 13:16:14;;;;;;;10.52;5.43;;;;;;;;;;5020695;28;20037;-70
2022/10/23 13:18:40;;;;;;;11.75;5.50;;;;;;;;;;5016541;28;20032;-70
2022/10/23 13:21:10;;;;;;;13.75;5.50;;;;;;;;;;5016190;28;20029;-69
2022/10/23 13:23:35;;;;;;;12.57;5.82;;;;;;;;;;5016511;28;20169;-71
2022/10/23 13:26:02;;;;;;;11.18;5.43;;;;;;;;;;5008718;28;20036;-72
2022/10/23 13:28:31;;;;;;;10.48;5.07;;;;;;;;;;5016783;28;20044;-67
2022/10/23 13:31:16;;;;;;;12.20;5.50;;;;;;;;;;5015644;28;20036;-71
2022/10/23 13:33:46;;;;;;;11.25;5.43;;;;;;;;;;5014824;28;20147;-69
2022/10/23 13:36:12;;;;;;;13.85;6.85;;;;;;;;;;5020419;28;20045;-72
2022/10/23 13:38:41;;;;;;;14.88;7.20;;;;;;;;;;5019557;28;20033;-70
2022/10/23 13:41:25;;;;;;;13.30;6.22;;;;;;;;;;5020309;28;20819;-70
2022/10/23 13:43:53;;;;;;;11.73;5.07;;;;;;;;;;5017797;28;20812;-69
2022/10/23 13:46:19;;;;;;;11.77;6.03;;;;;;;;;;5016654;28;20029;-70
2022/10/23 13:48:45;;;;;;;12.93;6.22;;;;;;;;;;5019302;28;20076;-70
2022/10/23 13:51:12;;;;;;;11.20;5.30;;;;;;;;;;5021064;28;20047;-69
2022/10/23 13:53:37;;;;;;;12.73;5.57;;;;;;;;;;5018332;28;20037;-71
2022/10/23 13:56:03;;;;;;;11.82;5.60;;;;;;;;;;5033827;28;20036;-70
2022/10/23 13:58:28;;;;;;;11.77;7.10;;;;;;;;;;5019080;28;20049;-69
2022/10/23 14:00:53;;;;;;;14.75;6.18;;;;;;;;;;5018341;28;20033;-71
2022/10/23 14:03:23;;;;;;;9.30;5.15;;;;;;;;;;5017373;28;20072;-73
2022/10/23 14:05:48;;;;;;;10.02;5.43;;;;;;;;;;5017010;28;20033;-68
2022/10/23 14:08:16;;;;;;;9.57;5.07;;;;;;;;;;5018153;28;20048;-65
2022/10/23 14:10:41;;;;;;;12.13;5.32;;;;;;;;;;4998073;28;20033;-72
2022/10/23 14:13:09;;;;;;;11.80;5.43;;;;;;;;;;5031510;28;20035;-69
2022/10/23 14:15:34;;;;;;;10.02;5.30;;;;;;;;;;5013572;28;20041;-71
2022/10/23 14:17:59;;;;;;;13.38;7.10;;;;;;;;;;5017275;28;20044;-69
2022/10/23 14:20:25;;;;;;;16.95;6.95;;;;;;;;;;5015044;28;20071;-68
2022/10/23 14:22:51;;;;;;;18.08;6.28;;;;;;;;;;5016845;28;20079;-68
2022/10/23 14:25:16;;;;;;;16.50;6.50;;;;;;;;;;5016219;28;20149;-70
2022/10/23 14:27:41;;;;;;;14.00;5.78;;;;;;;;;;5016137;28;20103;-69
2022/10/23 14:30:07;;;;;;;14.70;5.82;;;;;;;;;;4999178;28;20048;-69
2022/10/23 14:32:32;;;;;;;11.98;5.85;;;;;;;;;;5013545;28;20131;-68
2022/10/23 14:34:58;;;;;;;12.35;5.45;;;;;;;;;;5017731;28;20064;-69